sensor_id;sensor_type;location;lat;lon;timestamp;pressure;altitude;pressure_sealevel;temperature;humidity
55610;BME280;41486;52.502;13.486;2023-04-28T00:01:27;101388.94;;;4.56;91.44
55610;BME280;41486;52.502;13.486;2023-04-28T00:03:55;101390.69;;;4.56;90.52
55610;BME280;41486;52.502;13.486;2023-04-28T00:06:24;101396.88;;;4.53;91.36
55610;BME280;41486;52.502;13.486;2023-04-28T00:08:52;101391.78;;;4.50;91.50
55610;BME280;41486;52.502;13.486;2023-04-28T00:11:20;101397.22;;;4.44;92.90
55610;BME280;41486;52.502;13.486;2023-04-28T00:13:48;101396.22;;;4.48;94.01
55610;BME280;41486;52.502;13.486;2023-04-28T00:16:16;101396.00;;;4.53;93.43
55610;BME280;41486;52.502;13.486;2023-04-28T00:18:46;101391.00;;;4.48;93.11
55610;BME280;41486;52.502;13.486;2023-04-28T00:21:14;101396.63;;;4.60;92.25
55610;BME280;41486;52.502;13.486;2023-04-28T00:23:43;101394.03;;;4.60;92.96
55610;BME280;41486;52.502;13.486;2023-04-28T00:26:11;101389.25;;;4.49;94.17
55610;BME280;41486;52.502;13.486;2023-04-28T00:28:42;101396.56;;;4.61;93.97
55610;BME280;41486;52.502;13.486;2023-04-28T00:31:10;101381.66;;;4.42;95.67
55610;BME280;41486;52.502;13.486;2023-04-28T00:33:39;101384.22;;;4.20;97.32
55610;BME280;41486;52.502;13.486;2023-04-28T00:36:09;101386.09;;;4.17;98.45
55610;BME280;41486;52.502;13.486;2023-04-28T00:38:37;101383.88;;;4.30;98.38
55610;BME280;41486;52.502;13.486;2023-04-28T00:41:05;101386.00;;;4.20;98.34
55610;BME280;41486;52.502;13.486;2023-04-28T00:43:43;101380.84;;;4.18;98.74
55610;BME280;41486;52.502;13.486;2023-04-28T00:46:18;101377.25;;;4.21;98.29
55610;BME280;41486;52.502;13.486;2023-04-28T00:48:47;101378.13;;;4.21;99.05
55610;BME280;41486;52.502;13.486;2023-04-28T00:51:16;101376.34;;;4.22;99.16
55610;BME280;41486;52.502;13.486;2023-04-28T00:53:44;101378.41;;;4.14;100.00
55610;BME280;41486;52.502;13.486;2023-04-28T00:56:13;101368.91;;;4.13;100.00
55610;BME280;41486;52.502;13.486;2023-04-28T00:58:42;101370.03;;;4.05;100.00
55610;BME280;41486;52.502;13.486;2023-04-28T01:01:10;101369.97;;;4.07;100.00
55610;BME280;41486;52.502;13.486;2023-04-28T01:03:39;101363.88;;;4.08;100.00
55610;BME280;41486;52.502;13.486;2023-04-28T01:06:08;101361.13;;;4.11;100.00
55610;BME280;41486;52.502;13.486;2023-04-28T01:08:39;101362.50;;;3.98;100.00
55610;BME280;41486;52.502;13.486;2023-04-28T01:11:13;101362.34;;;4.02;100.00
55610;BME280;41486;52.502;13.486;2023-04-28T01:14:00;101363.31;;;4.00;100.00
55610;BME280;41486;52.502;13.486;2023-04-28T01:16:33;101360.00;;;3.94;100.00
55610;BME280;41486;52.502;13.486;2023-04-28T01:19:05;101353.16;;;4.16;100.00
55610;BME280;41486;52.502;13.486;2023-04-28T01:21:38;101357.56;;;4.14;100.00
55610;BME280;41486;52.502;13.486;2023-04-28T01:24:26;101354.13;;;4.13;100.00
55610;BME280;41486;52.502;13.486;2023-04-28T01:26:57;101352.66;;;4.06;100.00
55610;BME280;41486;52.502;13.486;2023-04-28T01:29:27;101349.56;;;3.96;100.00
55610;BME280;41486;52.502;13.486;2023-04-28T01:31:55;101349.25;;;4.04;100.00
55610;BME280;41486;52.502;13.486;2023-04-28T01:34:23;101348.69;;;3.95;100.00
55610;BME280;41486;52.502;13.486;2023-04-28T01:36:51;101340.25;;;3.89;100.00
55610;BME280;41486;52.502;13.486;2023-04-28T01:39:18;101336.91;;;3.85;100.00
55610;BME280;41486;52.502;13.486;2023-04-28T01:41:48;101341.22;;;3.86;100.00
55610;BME280;41486;52.502;13.486;2023-04-28T01:44:16;101335.72;;;3.94;100.00
55610;BME280;41486;52.502;13.486;2023-04-28T01:46:47;101340.47;;;3.83;100.00
55610;BME280;41486;52.502;13.486;2023-04-28T01:49:15;101339.91;;;3.74;100.00
55610;BME280;41486;52.502;13.486;2023-04-28T01:51:43;101337.31;;;3.74;100.00
55610;BME280;41486;52.502;13.486;2023-04-28T01:54:11;101335.03;;;3.89;100.00
55610;BME280;41486;52.502;13.486;2023-04-28T01:56:39;101334.09;;;3.91;98.72
55610;BME280;41486;52.502;13.486;2023-04-28T01:59:11;101328.53;;;3.77;98.93
55610;BME280;41486;52.502;13.486;2023-04-28T02:01:39;101325.75;;;3.82;99.12
55610;BME280;41486;52.502;13.486;2023-04-28T02:04:07;101325.00;;;3.79;98.37
55610;BME280;41486;52.502;13.486;2023-04-28T02:06:36;101323.22;;;3.80;97.47
55610;BME280;41486;52.502;13.486;2023-04-28T02:09:04;101328.25;;;3.85;96.79
55610;BME280;41486;52.502;13.486;2023-04-28T02:11:32;101333.53;;;3.83;96.75
55610;BME280;41486;52.502;13.486;2023-04-28T02:14:00;101325.75;;;3.82;96.54
55610;BME280;41486;52.502;13.486;2023-04-28T02:16:30;101327.53;;;3.81;96.48
55610;BME280;41486;52.502;13.486;2023-04-28T02:18:58;101334.38;;;3.84;96.41
55610;BME280;41486;52.502;13.486;2023-04-28T02:21:27;101337.13;;;3.79;96.28
55610;BME280;41486;52.502;13.486;2023-04-28T02:23:55;101326.31;;;3.66;98.18
55610;BME280;41486;52.502;13.486;2023-04-28T02:26:23;101326.00;;;3.75;97.16
55610;BME280;41486;52.502;13.486;2023-04-28T02:28:51;101329.91;;;3.63;98.49
55610;BME280;41486;52.502;13.486;2023-04-28T02:31:19;101328.03;;;3.67;97.97
55610;BME280;41486;52.502;13.486;2023-04-28T02:33:48;101316.72;;;3.68;97.70
55610;BME280;41486;52.502;13.486;2023-04-28T02:36:16;101322.94;;;3.88;96.65
55610;BME280;41486;52.502;13.486;2023-04-28T02:38:44;101318.25;;;3.74;96.59
55610;BME280;41486;52.502;13.486;2023-04-28T02:41:12;101317.13;;;3.81;96.18
55610;BME280;41486;52.502;13.486;2023-04-28T02:43:43;101316.44;;;3.76;96.27
55610;BME280;41486;52.502;13.486;2023-04-28T02:46:11;101308.66;;;3.74;96.32
55610;BME280;41486;52.502;13.486;2023-04-28T02:48:39;101308.09;;;3.66;97.50
55610;BME280;41486;52.502;13.486;2023-04-28T02:51:10;101303.13;;;3.60;97.28
55610;BME280;41486;52.502;13.486;2023-04-28T02:53:39;101309.19;;;3.60;96.62
55610;BME280;41486;52.502;13.486;2023-04-28T02:56:07;101310.03;;;3.61;97.30
55610;BME280;41486;52.502;13.486;2023-04-28T02:58:35;101306.63;;;3.59;97.02
55610;BME280;41486;52.502;13.486;2023-04-28T03:01:03;101301.50;;;3.81;95.86
55610;BME280;41486;52.502;13.486;2023-04-28T03:03:31;101308.63;;;3.76;95.02
55610;BME280;41486;52.502;13.486;2023-04-28T03:06:00;101313.22;;;3.69;95.42
55610;BME280;41486;52.502;13.486;2023-04-28T03:08:30;101305.31;;;3.72;95.61
55610;BME280;41486;52.502;13.486;2023-04-28T03:10:58;101302.16;;;3.86;94.84
55610;BME280;41486;52.502;13.486;2023-04-28T03:13:26;101299.50;;;3.88;94.34
55610;BME280;41486;52.502;13.486;2023-04-28T03:15:55;101306.53;;;3.62;96.24
55610;BME280;41486;52.502;13.486;2023-04-28T03:18:23;101301.03;;;3.70;96.17
55610;BME280;41486;52.502;13.486;2023-04-28T03:20:51;101303.13;;;3.60;96.64
55610;BME280;41486;52.502;13.486;2023-04-28T03:23:19;101295.09;;;3.66;96.70
55610;BME280;41486;52.502;13.486;2023-04-28T03:25:48;101293.53;;;3.62;96.38
55610;BME280;41486;52.502;13.486;2023-04-28T03:28:16;101289.13;;;3.86;94.93
55610;BME280;41486;52.502;13.486;2023-04-28T03:30:44;101295.41;;;3.81;94.25
55610;BME280;41486;52.502;13.486;2023-04-28T03:33:12;101284.50;;;3.71;95.29
55610;BME280;41486;52.502;13.486;2023-04-28T03:35:41;101286.78;;;3.80;95.48
55610;BME280;41486;52.502;13.486;2023-04-28T03:38:09;101282.59;;;3.76;96.09
55610;BME280;41486;52.502;13.486;2023-04-28T03:40:37;101273.66;;;3.83;95.38
55610;BME280;41486;52.502;13.486;2023-04-28T03:43:09;101284.69;;;3.66;95.85
55610;BME280;41486;52.502;13.486;2023-04-28T03:45:42;101286.53;;;3.86;96.27
55610;BME280;41486;52.502;13.486;2023-04-28T03:48:10;101270.41;;;3.76;96.37
55610;BME280;41486;52.502;13.486;2023-04-28T03:50:38;101279.94;;;3.77;97.26
55610;BME280;41486;52.502;13.486;2023-04-28T03:53:08;101280.16;;;3.71;97.13
55610;BME280;41486;52.502;13.486;2023-04-28T03:55:37;101273.91;;;3.99;95.90
55610;BME280;41486;52.502;13.486;2023-04-28T03:58:05;101276.41;;;4.02;94.69
55610;BME280;41486;52.502;13.486;2023-04-28T04:00:37;101267.41;;;3.87;95.35
55610;BME280;41486;52.502;13.486;2023-04-28T04:03:05;101270.59;;;4.18;93.45
55610;BME280;41486;52.502;13.486;2023-04-28T04:05:33;101266.09;;;3.99;93.72
55610;BME280;41486;52.502;13.486;2023-04-28T04:08:01;101263.91;;;4.10;94.29
55610;BME280;41486;52.502;13.486;2023-04-28T04:10:29;101265.19;;;4.22;91.91
55610;BME280;41486;52.502;13.486;2023-04-28T04:12:57;101263.03;;;4.12;92.50
55610;BME280;41486;52.502;13.486;2023-04-28T04:15:25;101270.41;;;4.22;91.58
55610;BME280;41486;52.502;13.486;2023-04-28T04:17:55;101256.50;;;4.22;91.61
55610;BME280;41486;52.502;13.486;2023-04-28T04:20:25;101269.09;;;4.33;89.88
55610;BME280;41486;52.502;13.486;2023-04-28T04:22:53;101258.47;;;4.39;90.19
55610;BME280;41486;52.502;13.486;2023-04-28T04:25:21;101257.56;;;4.40;89.71
55610;BME280;41486;52.502;13.486;2023-04-28T04:27:50;101263.34;;;4.47;89.19
55610;BME280;41486;52.502;13.486;2023-04-28T04:30:19;101255.34;;;4.51;88.01
55610;BME280;41486;52.502;13.486;2023-04-28T04:32:47;101260.69;;;4.48;88.09
55610;BME280;41486;52.502;13.486;2023-04-28T04:35:16;101255.53;;;4.47;88.62
55610;BME280;41486;52.502;13.486;2023-04-28T04:37:45;101254.38;;;4.74;87.17
55610;BME280;41486;52.502;13.486;2023-04-28T04:40:14;101251.41;;;4.84;86.48
55610;BME280;41486;52.502;13.486;2023-04-28T04:42:47;101252.56;;;4.77;85.77
55610;BME280;41486;52.502;13.486;2023-04-28T04:45:17;101245.78;;;4.72;85.97
55610;BME280;41486;52.502;13.486;2023-04-28T04:47:47;101239.38;;;4.80;85.44
55610;BME280;41486;52.502;13.486;2023-04-28T04:50:17;101240.53;;;4.93;84.74
55610;BME280;41486;52.502;13.486;2023-04-28T04:52:45;101238.88;;;4.92;84.38
55610;BME280;41486;52.502;13.486;2023-04-28T04:55:13;101238.72;;;4.95;83.94
55610;BME280;41486;52.502;13.486;2023-04-28T04:57:41;101238.72;;;5.16;82.78
55610;BME280;41486;52.502;13.486;2023-04-28T05:00:27;101244.25;;;5.08;83.19
55610;BME280;41486;52.502;13.486;2023-04-28T05:02:55;101235.03;;;5.20;82.32
55610;BME280;41486;52.502;13.486;2023-04-28T05:05:25;101229.03;;;5.18;82.67
55610;BME280;41486;52.502;13.486;2023-04-28T05:08:16;101232.03;;;5.29;81.77
55610;BME280;41486;52.502;13.486;2023-04-28T05:10:44;101236.75;;;5.40;81.03
55610;BME280;41486;52.502;13.486;2023-04-28T05:13:13;101225.41;;;5.41;80.34
55610;BME280;41486;52.502;13.486;2023-04-28T05:15:41;101228.88;;;5.61;79.37
55610;BME280;41486;52.502;13.486;2023-04-28T05:18:27;101229.34;;;5.50;79.66
55610;BME280;41486;52.502;13.486;2023-04-28T05:20:57;101216.88;;;5.57;79.71
55610;BME280;41486;52.502;13.486;2023-04-28T05:23:25;101224.41;;;5.63;79.23
55610;BME280;41486;52.502;13.486;2023-04-28T05:25:54;101222.88;;;5.78;78.33
55610;BME280;41486;52.502;13.486;2023-04-28T05:28:22;101222.88;;;5.78;78.41
55610;BME280;41486;52.502;13.486;2023-04-28T05:30:53;101225.81;;;5.89;78.93
55610;BME280;41486;52.502;13.486;2023-04-28T05:33:20;101216.91;;;5.93;77.84
55610;BME280;41486;52.502;13.486;2023-04-28T05:35:49;101216.78;;;5.96;77.74
55610;BME280;41486;52.502;13.486;2023-04-28T05:38:19;101210.84;;;6.12;77.25
55610;BME280;41486;52.502;13.486;2023-04-28T05:40:49;101212.94;;;6.23;77.55
55610;BME280;41486;52.502;13.486;2023-04-28T05:43:17;101204.84;;;6.45;76.43
55610;BME280;41486;52.502;13.486;2023-04-28T05:45:46;101208.94;;;6.51;75.93
55610;BME280;41486;52.502;13.486;2023-04-28T05:48:14;101201.50;;;6.43;74.91
55610;BME280;41486;52.502;13.486;2023-04-28T05:50:43;101199.41;;;6.50;75.19
55610;BME280;41486;52.502;13.486;2023-04-28T05:53:11;101196.63;;;6.70;74.79
55610;BME280;41486;52.502;13.486;2023-04-28T05:55:40;101202.69;;;6.71;74.18
55610;BME280;41486;52.502;13.486;2023-04-28T05:58:09;101199.28;;;6.86;73.40
55610;BME280;41486;52.502;13.486;2023-04-28T06:00:37;101193.06;;;6.89;72.88
55610;BME280;41486;52.502;13.486;2023-04-28T06:03:04;101200.34;;;7.00;72.78
55610;BME280;41486;52.502;13.486;2023-04-28T06:05:37;101192.09;;;7.07;72.31
55610;BME280;41486;52.502;13.486;2023-04-28T06:08:06;101190.25;;;7.09;71.28
55610;BME280;41486;52.502;13.486;2023-04-28T06:10:34;101189.66;;;7.20;71.25
55610;BME280;41486;52.502;13.486;2023-04-28T06:13:03;101190.88;;;7.31;70.91
55610;BME280;41486;52.502;13.486;2023-04-28T06:15:32;101190.38;;;7.40;70.54
55610;BME280;41486;52.502;13.486;2023-04-28T06:18:00;101190.38;;;7.56;69.73
55610;BME280;41486;52.502;13.486;2023-04-28T06:20:28;101189.78;;;7.67;69.90
55610;BME280;41486;52.502;13.486;2023-04-28T06:22:56;101180.22;;;7.82;69.20
55610;BME280;41486;52.502;13.486;2023-04-28T06:25:24;101180.28;;;7.96;68.11
55610;BME280;41486;52.502;13.486;2023-04-28T06:27:53;101173.09;;;8.00;67.87
55610;BME280;41486;52.502;13.486;2023-04-28T06:30:22;101168.16;;;8.10;67.16
55610;BME280;41486;52.502;13.486;2023-04-28T06:32:50;101171.69;;;8.25;66.43
55610;BME280;41486;52.502;13.486;2023-04-28T06:35:18;101162.66;;;8.45;64.57
55610;BME280;41486;52.502;13.486;2023-04-28T06:37:46;101158.47;;;8.57;63.82
55610;BME280;41486;52.502;13.486;2023-04-28T06:40:14;101160.94;;;8.74;62.52
55610;BME280;41486;52.502;13.486;2023-04-28T06:42:49;101160.94;;;8.89;63.73
55610;BME280;41486;52.502;13.486;2023-04-28T06:45:24;101157.66;;;8.99;62.52
55610;BME280;41486;52.502;13.486;2023-04-28T06:47:55;101159.44;;;9.13;62.43
55610;BME280;41486;52.502;13.486;2023-04-28T06:50:23;101160.16;;;9.30;61.33
55610;BME280;41486;52.502;13.486;2023-04-28T06:52:53;101154.59;;;9.49;60.93
55610;BME280;41486;52.502;13.486;2023-04-28T06:55:21;101156.63;;;9.58;59.15
55610;BME280;41486;52.502;13.486;2023-04-28T06:57:49;101149.94;;;9.67;58.37
55610;BME280;41486;52.502;13.486;2023-04-28T07:00:17;101145.97;;;9.74;57.09
55610;BME280;41486;52.502;13.486;2023-04-28T07:02:47;101134.97;;;9.82;55.17
55610;BME280;41486;52.502;13.486;2023-04-28T07:05:15;101139.69;;;9.90;55.08
55610;BME280;41486;52.502;13.486;2023-04-28T07:07:44;101134.91;;;9.97;54.52
55610;BME280;41486;52.502;13.486;2023-04-28T07:10:12;101135.53;;;10.00;52.51
55610;BME280;41486;52.502;13.486;2023-04-28T07:12:41;101137.38;;;10.13;53.23
55610;BME280;41486;52.502;13.486;2023-04-28T07:15:10;101133.44;;;10.18;52.17
55610;BME280;41486;52.502;13.486;2023-04-28T07:17:38;101127.69;;;10.26;51.73
55610;BME280;41486;52.502;13.486;2023-04-28T07:20:08;101126.88;;;10.38;51.20
55610;BME280;41486;52.502;13.486;2023-04-28T07:22:36;101123.13;;;10.43;51.22
55610;BME280;41486;52.502;13.486;2023-04-28T07:25:05;101125.94;;;10.39;50.69
55610;BME280;41486;52.502;13.486;2023-04-28T07:27:33;101119.13;;;10.50;50.46
55610;BME280;41486;52.502;13.486;2023-04-28T07:30:01;101116.38;;;10.64;50.74
55610;BME280;41486;52.502;13.486;2023-04-28T07:32:51;101119.00;;;10.77;50.44
55610;BME280;41486;52.502;13.486;2023-04-28T07:35:20;101109.50;;;10.87;50.52
55610;BME280;41486;52.502;13.486;2023-04-28T07:37:49;101109.28;;;10.91;50.80
55610;BME280;41486;52.502;13.486;2023-04-28T07:40:19;101098.72;;;11.03;49.99
55610;BME280;41486;52.502;13.486;2023-04-28T07:42:47;101104.09;;;11.02;49.34
55610;BME280;41486;52.502;13.486;2023-04-28T07:45:16;101105.56;;;11.06;49.21
55610;BME280;41486;52.502;13.486;2023-04-28T07:47:44;101104.53;;;11.09;49.60
55610;BME280;41486;52.502;13.486;2023-04-28T07:50:12;101099.97;;;11.11;49.29
55610;BME280;41486;52.502;13.486;2023-04-28T07:52:41;101091.44;;;11.07;49.23
55610;BME280;41486;52.502;13.486;2023-04-28T07:55:10;101088.81;;;11.07;49.48
55610;BME280;41486;52.502;13.486;2023-04-28T07:57:38;101095.59;;;11.23;49.67
55610;BME280;41486;52.502;13.486;2023-04-28T08:00:07;101087.56;;;11.37;50.15
55610;BME280;41486;52.502;13.486;2023-04-28T08:02:39;101086.59;;;11.38;49.22
55610;BME280;41486;52.502;13.486;2023-04-28T08:05:08;101093.00;;;11.47;49.04
55610;BME280;41486;52.502;13.486;2023-04-28T08:07:39;101080.09;;;11.55;49.32
55610;BME280;41486;52.502;13.486;2023-04-28T08:10:09;101081.13;;;11.65;48.93
55610;BME280;41486;52.502;13.486;2023-04-28T08:12:37;101077.78;;;11.75;48.27
55610;BME280;41486;52.502;13.486;2023-04-28T08:15:08;101082.88;;;11.89;48.24
55610;BME280;41486;52.502;13.486;2023-04-28T08:17:36;101073.16;;;11.90;48.04
55610;BME280;41486;52.502;13.486;2023-04-28T08:20:06;101074.19;;;12.00;47.76
55610;BME280;41486;52.502;13.486;2023-04-28T08:22:34;101075.28;;;12.09;47.91
55610;BME280;41486;52.502;13.486;2023-04-28T08:25:03;101073.97;;;12.14;47.42
55610;BME280;41486;52.502;13.486;2023-04-28T08:27:33;101073.63;;;12.30;47.12
55610;BME280;41486;52.502;13.486;2023-04-28T08:30:06;101070.97;;;12.30;47.65
55610;BME280;41486;52.502;13.486;2023-04-28T08:32:34;101076.16;;;12.32;47.16
55610;BME280;41486;52.502;13.486;2023-04-28T08:35:03;101071.09;;;12.29;47.14
55610;BME280;41486;52.502;13.486;2023-04-28T08:37:31;101065.59;;;12.43;47.19
55610;BME280;41486;52.502;13.486;2023-04-28T08:39:59;101063.81;;;12.55;47.27
55610;BME280;41486;52.502;13.486;2023-04-28T08:42:30;101062.72;;;12.69;46.63
55610;BME280;41486;52.502;13.486;2023-04-28T08:45:02;101057.31;;;12.71;46.19
55610;BME280;41486;52.502;13.486;2023-04-28T08:47:33;101053.84;;;12.82;46.13
55610;BME280;41486;52.502;13.486;2023-04-28T08:50:03;101059.13;;;12.70;44.96
55610;BME280;41486;52.502;13.486;2023-04-28T08:52:32;101052.25;;;12.90;44.51
55610;BME280;41486;52.502;13.486;2023-04-28T08:55:05;101043.13;;;12.94;44.99
55610;BME280;41486;52.502;13.486;2023-04-28T08:57:36;101048.03;;;13.10;44.56
55610;BME280;41486;52.502;13.486;2023-04-28T09:00:09;101046.19;;;13.22;44.41
55610;BME280;41486;52.502;13.486;2023-04-28T09:02:38;101040.41;;;13.29;43.97
55610;BME280;41486;52.502;13.486;2023-04-28T09:05:09;101033.31;;;13.29;44.37
55610;BME280;41486;52.502;13.486;2023-04-28T09:07:38;101029.31;;;13.35;44.31
55610;BME280;41486;52.502;13.486;2023-04-28T09:10:17;101031.81;;;13.48;43.74
55610;BME280;41486;52.502;13.486;2023-04-28T09:15:59;101018.75;;;13.67;43.38
55610;BME280;41486;52.502;13.486;2023-04-28T09:18:29;101021.59;;;13.76;43.39
55610;BME280;41486;52.502;13.486;2023-04-28T09:21:05;101025.34;;;13.73;43.17
55610;BME280;41486;52.502;13.486;2023-04-28T09:23:35;101018.28;;;13.62;44.34
55610;BME280;41486;52.502;13.486;2023-04-28T09:26:13;101006.03;;;13.82;43.51
55610;BME280;41486;52.502;13.486;2023-04-28T09:28:41;101011.41;;;13.92;43.40
55610;BME280;41486;52.502;13.486;2023-04-28T09:31:22;101008.63;;;13.94;43.54
55610;BME280;41486;52.502;13.486;2023-04-28T09:33:56;101003.44;;;14.13;43.06
55610;BME280;41486;52.502;13.486;2023-04-28T09:36:27;101000.88;;;14.33;43.16
55610;BME280;41486;52.502;13.486;2023-04-28T09:38:56;101001.94;;;14.51;43.08
55610;BME280;41486;52.502;13.486;2023-04-28T09:41:34;100983.22;;;14.43;42.79
55610;BME280;41486;52.502;13.486;2023-04-28T09:44:12;100991.34;;;14.61;42.53
55610;BME280;41486;52.502;13.486;2023-04-28T09:46:44;100990.78;;;14.48;42.29
55610;BME280;41486;52.502;13.486;2023-04-28T09:49:12;100975.47;;;14.61;42.93
55610;BME280;41486;52.502;13.486;2023-04-28T09:51:41;100982.28;;;14.64;43.48
55610;BME280;41486;52.502;13.486;2023-04-28T09:54:09;100976.94;;;14.75;43.34
55610;BME280;41486;52.502;13.486;2023-04-28T09:56:40;100986.41;;;14.88;42.96
55610;BME280;41486;52.502;13.486;2023-04-28T09:59:10;100969.44;;;15.00;42.19
55610;BME280;41486;52.502;13.486;2023-04-28T10:01:39;100976.56;;;15.19;42.85
55610;BME280;41486;52.502;13.486;2023-04-28T10:04:09;100979.91;;;15.21;42.40
55610;BME280;41486;52.502;13.486;2023-04-28T10:06:39;100974.72;;;15.39;42.77
55610;BME280;41486;52.502;13.486;2023-04-28T10:09:08;100972.78;;;15.41;42.11
55610;BME280;41486;52.502;13.486;2023-04-28T10:11:38;100962.28;;;15.59;42.72
55610;BME280;41486;52.502;13.486;2023-04-28T10:14:06;100969.09;;;15.91;41.28
55610;BME280;41486;52.502;13.486;2023-04-28T10:16:34;100957.00;;;16.07;39.97
55610;BME280;41486;52.502;13.486;2023-04-28T10:19:03;100959.19;;;16.21;40.18
55610;BME280;41486;52.502;13.486;2023-04-28T10:21:36;100952.19;;;16.30;40.31
55610;BME280;41486;52.502;13.486;2023-04-28T10:24:09;100948.41;;;16.51;39.56
55610;BME280;41486;52.502;13.486;2023-04-28T10:27:04;100951.78;;;16.53;39.77
55610;BME280;41486;52.502;13.486;2023-04-28T10:29:33;100951.06;;;16.51;39.52
55610;BME280;41486;52.502;13.486;2023-04-28T10:32:15;100943.78;;;15.97;40.79
55610;BME280;41486;52.502;13.486;2023-04-28T10:34:44;100948.13;;;16.54;40.52
55610;BME280;41486;52.502;13.486;2023-04-28T10:37:14;100938.78;;;16.68;38.74
55610;BME280;41486;52.502;13.486;2023-04-28T10:40:32;100934.75;;;16.46;39.43
55610;BME280;41486;52.502;13.486;2023-04-28T10:43:01;100931.69;;;16.68;39.57
55610;BME280;41486;52.502;13.486;2023-04-28T10:49:04;100927.91;;;17.07;39.16
55610;BME280;41486;52.502;13.486;2023-04-28T10:51:33;100922.91;;;17.04;39.03
55610;BME280;41486;52.502;13.486;2023-04-28T10:54:23;100919.47;;;17.12;38.08
55610;BME280;41486;52.502;13.486;2023-04-28T10:57:18;100917.50;;;17.40;38.83
55610;BME280;41486;52.502;13.486;2023-04-28T10:59:50;100914.16;;;17.56;37.31
55610;BME280;41486;52.502;13.486;2023-04-28T11:05:13;100900.22;;;16.46;38.18
55610;BME280;41486;52.502;13.486;2023-04-28T11:11:19;100905.56;;;17.71;37.26
55610;BME280;41486;52.502;13.486;2023-04-28T11:13:48;100910.78;;;18.58;36.55
55610;BME280;41486;52.502;13.486;2023-04-28T11:16:18;100907.81;;;19.35;34.77
55610;BME280;41486;52.502;13.486;2023-04-28T11:18:52;100901.81;;;19.25;34.81
55610;BME280;41486;52.502;13.486;2023-04-28T11:21:23;100892.63;;;19.44;34.43
55610;BME280;41486;52.502;13.486;2023-04-28T11:23:53;100898.66;;;19.05;34.79
55610;BME280;41486;52.502;13.486;2023-04-28T11:26:23;100898.47;;;18.82;35.37
55610;BME280;41486;52.502;13.486;2023-04-28T11:28:52;100892.97;;;18.07;36.64
55610;BME280;41486;52.502;13.486;2023-04-28T11:31:22;100893.56;;;17.93;37.40
55610;BME280;41486;52.502;13.486;2023-04-28T11:34:03;100898.91;;;18.44;36.35
55610;BME280;41486;52.502;13.486;2023-04-28T11:36:33;100892.66;;;18.19;35.54
55610;BME280;41486;52.502;13.486;2023-04-28T11:39:02;100892.00;;;17.82;36.79
55610;BME280;41486;52.502;13.486;2023-04-28T11:41:35;100893.97;;;17.80;37.12
55610;BME280;41486;52.502;13.486;2023-04-28T11:44:11;100893.91;;;17.63;36.93
55610;BME280;41486;52.502;13.486;2023-04-28T11:46:46;100889.75;;;17.43;37.17
55610;BME280;41486;52.502;13.486;2023-04-28T11:49:17;100887.19;;;17.59;39.42
55610;BME280;41486;52.502;13.486;2023-04-28T11:51:47;100887.34;;;17.84;39.28
55610;BME280;41486;52.502;13.486;2023-04-28T11:54:20;100883.78;;;17.41;37.58
55610;BME280;41486;52.502;13.486;2023-04-28T11:56:54;100877.03;;;17.28;38.86
55610;BME280;41486;52.502;13.486;2023-04-28T11:59:24;100867.81;;;17.14;38.35
55610;BME280;41486;52.502;13.486;2023-04-28T12:01:54;100866.16;;;17.13;39.07
55610;BME280;41486;52.502;13.486;2023-04-28T12:04:27;100866.28;;;17.12;38.62
55610;BME280;41486;52.502;13.486;2023-04-28T12:07:03;100876.38;;;17.26;38.39
55610;BME280;41486;52.502;13.486;2023-04-28T12:09:32;100859.69;;;17.42;38.53
55610;BME280;41486;52.502;13.486;2023-04-28T12:12:03;100874.88;;;17.50;38.30
55610;BME280;41486;52.502;13.486;2023-04-28T12:17:24;100861.94;;;18.57;37.13
55610;BME280;41486;52.502;13.486;2023-04-28T12:19:52;100864.66;;;19.15;36.47
55610;BME280;41486;52.502;13.486;2023-04-28T12:22:21;100858.00;;;19.11;36.07
55610;BME280;41486;52.502;13.486;2023-04-28T12:25:02;100859.47;;;18.64;36.85
55610;BME280;41486;52.502;13.486;2023-04-28T12:27:34;100852.50;;;19.04;35.85
55610;BME280;41486;52.502;13.486;2023-04-28T12:30:29;100852.03;;;18.92;35.87
55610;BME280;41486;52.502;13.486;2023-04-28T12:32:57;100848.63;;;19.40;35.37
55610;BME280;41486;52.502;13.486;2023-04-28T12:35:27;100841.91;;;19.44;35.44
55610;BME280;41486;52.502;13.486;2023-04-28T12:37:55;100842.09;;;19.43;35.71
55610;BME280;41486;52.502;13.486;2023-04-28T12:40:24;100848.97;;;19.20;36.07
55610;BME280;41486;52.502;13.486;2023-04-28T12:42:54;100837.66;;;18.69;37.08
55610;BME280;41486;52.502;13.486;2023-04-28T12:45:22;100837.84;;;18.92;36.43
55610;BME280;41486;52.502;13.486;2023-04-28T12:47:50;100831.44;;;18.43;37.21
55610;BME280;41486;52.502;13.486;2023-04-28T12:50:19;100830.63;;;18.35;37.50
55610;BME280;41486;52.502;13.486;2023-04-28T12:52:47;100822.28;;;18.21;36.98
55610;BME280;41486;52.502;13.486;2023-04-28T12:55:15;100827.00;;;17.93;37.75
55610;BME280;41486;52.502;13.486;2023-04-28T12:57:43;100826.22;;;18.09;37.91
55610;BME280;41486;52.502;13.486;2023-04-28T13:00:13;100822.22;;;17.96;38.06
55610;BME280;41486;52.502;13.486;2023-04-28T13:02:41;100823.56;;;18.09;37.78
55610;BME280;41486;52.502;13.486;2023-04-28T13:05:11;100824.38;;;18.01;38.59
55610;BME280;41486;52.502;13.486;2023-04-28T13:07:40;100820.44;;;17.79;38.43
55610;BME280;41486;52.502;13.486;2023-04-28T13:10:09;100812.28;;;17.80;38.56
55610;BME280;41486;52.502;13.486;2023-04-28T13:12:37;100807.88;;;17.63;38.66
55610;BME280;41486;52.502;13.486;2023-04-28T13:15:06;100800.84;;;17.88;38.39
55610;BME280;41486;52.502;13.486;2023-04-28T13:17:35;100810.06;;;17.67;38.77